To NAV CANADA Home Page Login to a new session Search on AWWS site Feedback and Comments Disclaimer Vers la page française équivalente Tips FAQ What's new on the site To the Forecasts and Observations / NOTAM section To "File a Flight Plan" website Publications and other links Update of the User's profile FIC Telephone Numbers My Weather Data Folder Route Weather Data Regional Weather Data Local Weather Data To the Forecasts and Observations / NOTAM section
Request Generated 02/23/2017 at 20:47:11 UTC . Weather information available at that time is displayed.

METAR/TAF

KITCHENER/WATERLOO/ON    (show WxCam)

METAR CYKF 232000Z AUTO 30017KT 9SM SCT025 12/06 A2972 RMK SLP067
DENSITY ALT 1100FT=
METAR CYKF 231900Z AUTO 29019G26KT 9SM SCT026 SCT032 13/08 A2969 RMK
SLP056 DENSITY ALT 1300FT=
METAR CYKF 231800Z AUTO 26016G25KT 9SM CLR 16/08 A2966 RMK SLP045
DENSITY ALT 1600FT=

TAF CYKF 231938Z 2320/2405 28012G22KT P6SM SCT020 TEMPO 2320/2323
BKN020
FM232300 32008KT P6SM FEW020 SCT180
BECMG 2402/2404 03006KT
RMK FCST BASED ON AUTO OBS. NXT FCST BY 240200Z=
Your time UTC time
Weather data provided by Environment Canada and NAV CANADA